createdAt,value
2022-10-21T00:00:53.878Z,82.32
2022-10-21T00:03:22.334Z,84.35
2022-10-21T00:05:50.031Z,87.41
2022-10-21T00:08:18.471Z,87.75
2022-10-21T00:10:46.039Z,87.73
2022-10-21T00:13:13.339Z,89.14
2022-10-21T00:15:40.260Z,86.79
2022-10-21T00:18:07.369Z,87.53
2022-10-21T00:20:37.295Z,86.95
2022-10-21T00:23:07.312Z,85.74
2022-10-21T00:25:34.266Z,84.89
2022-10-21T00:28:01.514Z,83.11
2022-10-21T00:30:28.423Z,86.26
2022-10-21T00:32:59.330Z,88.46
2022-10-21T00:35:32.355Z,89.45
2022-10-21T00:37:59.452Z,88.64
2022-10-21T00:40:26.480Z,86.38
2022-10-21T00:42:53.723Z,84.74
2022-10-21T00:45:24.235Z,87.68
2022-10-21T00:48:03.403Z,86.57
2022-10-21T00:50:38.734Z,87.23
2022-10-21T00:53:14.475Z,87.42
2022-10-21T00:55:49.957Z,85.64
2022-10-21T00:58:21.495Z,84.20
2022-10-21T01:00:50.485Z,85.71
2022-10-21T01:03:17.703Z,86.41
2022-10-21T01:05:45.328Z,85.65
2022-10-21T01:08:12.894Z,85.10
2022-10-21T01:10:40.487Z,88.00
2022-10-21T01:14:11.903Z,87.38
2022-10-21T01:17:00.688Z,87.86
2022-10-21T01:20:28.067Z,88.80
2022-10-21T01:23:43.629Z,89.72
2022-10-21T01:26:58.365Z,86.45
2022-10-21T01:29:57.762Z,86.23
2022-10-21T01:32:48.955Z,83.59
2022-10-21T01:35:49.435Z,82.56
2022-10-21T01:39:09.780Z,84.89
2022-10-21T01:44:57.674Z,85.57
2022-10-21T01:47:43.400Z,84.87
2022-10-21T01:50:34.780Z,86.15
2022-10-21T01:53:11.751Z,89.29
2022-10-21T01:55:40.974Z,88.20
2022-10-21T01:58:19.569Z,88.04
2022-10-21T02:00:48.806Z,89.74
2022-10-21T02:03:28.949Z,88.22
2022-10-21T02:05:56.081Z,87.25
2022-10-21T02:08:23.233Z,85.97
2022-10-21T02:10:56.893Z,85.22
2022-10-21T02:13:31.119Z,86.84
2022-10-21T02:16:03.483Z,84.12
2022-10-21T02:18:30.643Z,85.08
2022-10-21T02:21:06.251Z,87.74
2022-10-21T02:23:50.713Z,90.44
2022-10-21T02:26:18.284Z,89.77
2022-10-21T02:28:45.808Z,88.24
2022-10-21T02:31:22.056Z,87.49
2022-10-21T02:34:17.326Z,86.54
2022-10-21T02:37:11.947Z,83.87
2022-10-21T02:39:56.205Z,85.59
2022-10-21T02:42:31.227Z,84.70
2022-10-21T02:45:01.480Z,84.44
2022-10-21T02:47:29.750Z,84.75
2022-10-21T02:49:56.708Z,85.75
2022-10-21T02:52:23.694Z,85.06
2022-10-21T02:54:50.594Z,85.54
2022-10-21T02:57:17.649Z,85.08
2022-10-21T02:59:44.698Z,86.37
2022-10-21T03:02:11.592Z,86.89
2022-10-21T03:04:38.668Z,86.93
2022-10-21T03:07:05.784Z,86.70
2022-10-21T03:09:32.768Z,87.20
2022-10-21T03:11:59.742Z,89.15
2022-10-21T03:14:26.811Z,89.40
2022-10-21T03:16:53.757Z,89.09
2022-10-21T03:19:20.670Z,88.77
2022-10-21T03:21:47.746Z,88.71
2022-10-21T03:24:24.950Z,88.63
2022-10-21T03:26:55.696Z,89.87
2022-10-21T03:29:22.626Z,88.15
2022-10-21T03:31:49.635Z,87.61
2022-10-21T03:34:16.827Z,87.94
2022-10-21T03:36:43.765Z,88.27
2022-10-21T03:39:12.163Z,86.71
2022-10-21T03:41:39.409Z,86.22
2022-10-21T03:44:06.609Z,87.12
2022-10-21T03:46:33.662Z,87.48
2022-10-21T03:49:04.285Z,86.62
2022-10-21T03:51:32.891Z,88.21
2022-10-21T03:53:59.858Z,87.72
2022-10-21T03:56:27.142Z,86.20
2022-10-21T03:58:58.507Z,85.78
2022-10-21T04:01:27.371Z,86.63
2022-10-21T04:03:54.571Z,87.21
2022-10-21T04:06:21.574Z,87.96
2022-10-21T04:08:48.779Z,88.02
2022-10-21T04:11:16.033Z,88.44
2022-10-21T04:13:43.149Z,86.61
2022-10-21T04:16:19.768Z,86.59
2022-10-21T04:18:47.351Z,87.80
2022-10-21T04:21:14.724Z,87.83
2022-10-21T04:23:42.195Z,88.18
2022-10-21T04:26:09.917Z,85.30
2022-10-21T04:28:37.577Z,86.14
2022-10-21T04:31:04.935Z,86.22
2022-10-21T04:33:31.905Z,85.42
2022-10-21T04:35:59.273Z,84.64
2022-10-21T04:38:26.889Z,84.10
2022-10-21T04:41:02.963Z,85.21
2022-10-21T04:43:30.553Z,84.00
2022-10-21T04:45:57.478Z,82.39
2022-10-21T04:48:24.633Z,82.22
2022-10-21T04:50:53.008Z,81.91
2022-10-21T04:53:21.279Z,82.62
2022-10-21T04:55:53.490Z,85.79
2022-10-21T04:58:22.384Z,88.45
2022-10-21T05:00:53.283Z,85.86
2022-10-21T05:03:21.094Z,86.83
2022-10-21T05:05:52.481Z,85.43
2022-10-21T05:08:20.902Z,86.17
2022-10-21T05:10:48.233Z,84.27
2022-10-21T05:13:15.684Z,85.65
2022-10-21T05:15:42.950Z,84.10
2022-10-21T05:18:12.287Z,84.79
2022-10-21T05:20:39.396Z,85.34
2022-10-21T05:23:06.327Z,83.96
2022-10-21T05:25:34.366Z,84.50
2022-10-21T05:28:01.990Z,84.77
2022-10-21T05:30:29.029Z,83.43
2022-10-21T05:32:56.159Z,85.68
2022-10-21T05:35:23.337Z,84.94
2022-10-21T05:37:50.203Z,88.66
2022-10-21T05:40:18.491Z,90.65
2022-10-21T05:42:45.961Z,88.85
2022-10-21T05:45:12.981Z,85.66
2022-10-21T05:47:44.061Z,85.67
2022-10-21T05:50:12.747Z,84.89
2022-10-21T05:52:40.944Z,86.40
2022-10-21T05:55:09.745Z,88.17
2022-10-21T05:57:38.571Z,89.03
2022-10-21T06:00:07.361Z,86.84
2022-10-21T06:02:35.967Z,84.37
2022-10-21T06:05:04.051Z,84.91
2022-10-21T06:07:30.992Z,85.65
2022-10-21T06:09:58.087Z,84.50
2022-10-21T06:12:25.460Z,84.18
2022-10-21T06:14:52.444Z,84.55
2022-10-21T06:17:19.456Z,84.75
2022-10-21T06:19:50.021Z,85.62
2022-10-21T06:22:18.047Z,84.03
2022-10-21T06:24:46.182Z,83.40
2022-10-21T06:27:13.806Z,84.84
2022-10-21T06:29:40.958Z,86.65
2022-10-21T06:32:07.862Z,83.89
2022-10-21T06:34:34.798Z,85.52
2022-10-21T06:37:01.695Z,85.53
2022-10-21T06:39:28.705Z,87.92
2022-10-21T06:41:55.792Z,88.33
2022-10-21T06:44:39.592Z,86.95
2022-10-21T06:47:06.955Z,87.83
2022-10-21T06:49:34.003Z,88.60
2022-10-21T06:52:01.116Z,88.95
2022-10-21T06:54:28.287Z,88.22
2022-10-21T06:56:55.420Z,87.36
2022-10-21T06:59:22.581Z,84.59
2022-10-21T07:01:59.695Z,83.84
2022-10-21T07:04:28.173Z,85.00
2022-10-21T07:06:55.404Z,87.17
2022-10-21T07:09:22.701Z,86.45
2022-10-21T07:11:49.697Z,86.83
2022-10-21T07:14:16.913Z,86.64
2022-10-21T07:16:43.893Z,87.27
2022-10-21T07:19:11.406Z,87.52
2022-10-21T07:21:38.550Z,89.02
2022-10-21T07:24:06.300Z,90.39
2022-10-21T07:26:34.769Z,90.05
2022-10-21T07:29:02.374Z,90.49
2022-10-21T07:31:34.485Z,91.48
2022-10-21T07:36:39.819Z,95.64
2022-10-21T07:39:12.591Z,96.06
2022-10-21T07:41:47.582Z,93.82
2022-10-21T07:44:16.477Z,91.86
2022-10-21T07:46:44.684Z,93.24
2022-10-21T07:49:13.635Z,90.85
2022-10-21T07:51:41.941Z,90.23
2022-10-21T07:54:09.818Z,92.68
2022-10-21T07:56:45.527Z,89.95
2022-10-21T07:59:14.855Z,89.66
2022-10-21T08:01:44.601Z,87.84
2022-10-21T08:04:15.954Z,88.44
2022-10-21T08:06:46.515Z,88.30
2022-10-21T08:09:15.393Z,86.60
2022-10-21T08:11:42.741Z,85.98
2022-10-21T08:14:11.796Z,85.59
2022-10-21T08:16:39.195Z,86.13
2022-10-21T08:19:07.583Z,86.15
2022-10-21T08:21:36.410Z,86.24
2022-10-21T08:24:04.773Z,85.54
2022-10-21T08:26:32.280Z,85.29
2022-10-21T08:28:59.549Z,84.40
2022-10-21T08:31:26.480Z,84.57
2022-10-21T08:33:55.569Z,84.42
2022-10-21T08:36:25.767Z,83.38
2022-10-21T08:38:53.571Z,81.87
2022-10-21T08:41:29.702Z,84.15
2022-10-21T08:44:20.318Z,81.81
2022-10-21T08:47:11.277Z,83.07
2022-10-21T08:50:16.492Z,80.08
2022-10-21T08:52:59.884Z,80.20
2022-10-21T08:55:38.004Z,80.28
2022-10-21T08:58:05.377Z,80.25
2022-10-21T09:01:26.425Z,82.02
2022-10-21T09:04:04.293Z,84.28
2022-10-21T09:06:57.810Z,84.08
2022-10-21T09:09:41.081Z,82.34
2022-10-21T09:12:49.051Z,84.87
2022-10-21T09:15:45.434Z,83.29
2022-10-21T09:18:30.921Z,82.88
2022-10-21T09:22:33.565Z,84.27
2022-10-21T09:25:15.001Z,83.64
2022-10-21T09:27:55.613Z,83.17
2022-10-21T09:30:25.231Z,83.80
2022-10-21T09:32:59.970Z,84.18
2022-10-21T09:35:41.021Z,84.59
2022-10-21T09:38:13.590Z,84.75
2022-10-21T09:40:40.694Z,83.43
2022-10-21T09:43:24.902Z,83.98
2022-10-21T09:45:52.713Z,84.69
2022-10-21T09:48:25.307Z,86.26
2022-10-21T09:51:02.273Z,84.89
2022-10-21T09:53:52.899Z,87.71
2022-10-21T09:56:27.953Z,86.37
2022-10-21T09:59:14.275Z,86.76
2022-10-21T10:01:43.972Z,84.98
2022-10-21T10:04:22.310Z,86.18
2022-10-21T10:06:50.445Z,85.87
2022-10-21T10:09:34.482Z,84.98
2022-10-21T10:12:13.265Z,85.25
2022-10-21T10:14:47.014Z,85.24
2022-10-21T10:17:37.333Z,85.56
2022-10-21T10:20:04.296Z,85.56
2022-10-21T10:22:43.461Z,85.72
2022-10-21T10:25:22.047Z,85.97
2022-10-21T10:28:20.503Z,86.18
2022-10-21T10:30:52.416Z,85.61
2022-10-21T10:33:26.490Z,85.03
2022-10-21T10:36:05.202Z,87.07
2022-10-21T10:38:52.406Z,89.14
2022-10-21T10:41:19.831Z,87.01
2022-10-21T10:43:51.694Z,88.68
2022-10-21T10:46:30.469Z,87.62
2022-10-21T10:49:12.786Z,88.82
2022-10-21T10:51:42.970Z,89.03
2022-10-21T10:54:24.898Z,89.24
2022-10-21T10:57:26.553Z,87.02
2022-10-21T11:00:23.594Z,87.50
2022-10-21T11:03:13.620Z,86.43
2022-10-21T11:05:56.167Z,86.22
2022-10-21T11:08:34.311Z,87.14
2022-10-21T11:11:06.868Z,86.30
2022-10-21T11:13:38.815Z,85.91
2022-10-21T11:16:23.284Z,84.89
2022-10-21T11:19:15.476Z,85.98
2022-10-21T11:21:54.504Z,84.60
2022-10-21T11:25:04.574Z,84.06
2022-10-21T11:28:19.030Z,83.73
2022-10-21T11:31:43.719Z,84.72
2022-10-21T11:35:08.393Z,84.17
2022-10-21T11:37:50.702Z,83.84
2022-10-21T11:40:28.785Z,84.51
2022-10-21T11:43:01.973Z,88.08
2022-10-21T11:46:08.136Z,87.98
2022-10-21T11:49:18.101Z,84.29
2022-10-21T11:52:18.766Z,83.82
2022-10-21T11:55:09.614Z,87.30
2022-10-21T11:58:20.140Z,86.22
2022-10-21T12:01:24.224Z,87.45
2022-10-21T12:04:21.848Z,84.49
2022-10-21T12:07:13.918Z,85.41
2022-10-21T12:10:21.087Z,86.11
2022-10-21T12:12:51.333Z,87.52
2022-10-21T12:15:29.128Z,84.66
2022-10-21T12:17:58.102Z,84.89
2022-10-21T12:20:27.212Z,85.33
2022-10-21T12:23:05.507Z,85.67
2022-10-21T12:25:48.992Z,86.25
2022-10-21T12:28:36.375Z,85.80
2022-10-21T12:31:40.428Z,84.78
2022-10-21T12:34:10.737Z,84.95
2022-10-21T12:36:40.933Z,84.54
2022-10-21T12:39:34.161Z,84.06
2022-10-21T12:42:27.995Z,83.29
2022-10-21T12:44:54.966Z,83.44
2022-10-21T12:47:42.289Z,83.33
2022-10-21T12:50:15.256Z,83.40
2022-10-21T12:52:44.926Z,83.18
2022-10-21T12:55:27.116Z,83.17
2022-10-21T12:58:02.607Z,83.28
2022-10-21T13:00:29.475Z,82.32
2022-10-21T13:03:21.936Z,80.51
2022-10-21T13:05:49.909Z,81.98
2022-10-21T13:08:22.938Z,81.91
2022-10-21T13:11:05.644Z,81.09
2022-10-21T13:13:43.637Z,81.94
2022-10-21T13:16:19.845Z,82.21
2022-10-21T13:19:04.637Z,83.34
2022-10-21T13:21:41.439Z,83.89
2022-10-21T13:24:11.475Z,84.23
2022-10-21T13:27:01.507Z,82.05
2022-10-21T13:29:33.965Z,82.07
2022-10-21T13:32:19.019Z,81.46
2022-10-21T13:34:58.127Z,82.30
2022-10-21T13:37:35.422Z,83.29
2022-10-21T13:40:18.560Z,81.73
2022-10-21T13:42:59.497Z,82.35
2022-10-21T13:45:36.439Z,82.69
2022-10-21T13:48:07.176Z,80.48
2022-10-21T13:50:40.785Z,80.61
2022-10-21T13:53:38.090Z,81.69
2022-10-21T13:56:08.710Z,83.65
2022-10-21T13:58:41.168Z,82.40
2022-10-21T14:01:20.388Z,81.72
2022-10-21T14:06:36.445Z,80.98
2022-10-21T14:09:08.165Z,82.07
2022-10-21T14:11:45.885Z,81.44
2022-10-21T14:14:17.491Z,82.06
2022-10-21T14:17:03.209Z,84.24
2022-10-21T14:19:35.517Z,84.68
2022-10-21T14:24:43.797Z,81.74
2022-10-21T14:27:26.629Z,82.97
2022-10-21T14:29:54.543Z,83.13
2022-10-21T14:32:25.753Z,80.84
2022-10-21T14:35:09.763Z,79.77
2022-10-21T14:37:47.123Z,80.44
2022-10-21T14:43:22.906Z,85.59
2022-10-21T14:45:54.274Z,85.72
2022-10-21T14:48:32.225Z,82.02
2022-10-21T14:51:13.571Z,81.59
2022-10-21T14:54:02.048Z,81.72
2022-10-21T14:56:40.605Z,82.34
2022-10-21T14:59:39.412Z,82.16
2022-10-21T15:02:21.772Z,80.92
2022-10-21T15:04:52.909Z,83.22
2022-10-21T15:10:24.892Z,81.51
2022-10-21T15:12:52.758Z,80.33
2022-10-21T15:15:55.932Z,80.64
2022-10-21T15:18:36.677Z,81.60
2022-10-21T15:21:09.861Z,84.08
2022-10-21T15:23:41.367Z,84.52
2022-10-21T15:26:23.243Z,84.17
2022-10-21T15:28:51.883Z,84.05
2022-10-21T15:31:29.356Z,84.41
2022-10-21T15:33:58.514Z,83.03
2022-10-21T15:36:25.873Z,84.77
2022-10-21T15:38:54.646Z,84.25
2022-10-21T15:41:26.132Z,83.00
2022-10-21T15:44:13.858Z,82.71
2022-10-21T15:46:47.015Z,82.52
2022-10-21T15:49:22.439Z,82.34
2022-10-21T15:51:50.738Z,82.20
2022-10-21T15:54:19.367Z,81.54
2022-10-21T15:56:51.837Z,83.74
2022-10-21T15:59:32.038Z,81.54
2022-10-21T16:02:00.774Z,83.43
2022-10-21T16:04:27.817Z,83.68
2022-10-21T16:06:55.369Z,82.85
2022-10-21T16:09:26.575Z,82.76
2022-10-21T16:12:00.359Z,82.48
2022-10-21T16:14:30.462Z,82.95
2022-10-21T16:16:59.051Z,81.94
2022-10-21T16:19:26.354Z,81.73
2022-10-21T16:21:53.432Z,83.80
2022-10-21T16:24:20.392Z,86.73
2022-10-21T16:26:49.449Z,89.38
2022-10-21T16:29:23.067Z,85.60
2022-10-21T16:31:51.947Z,83.37
2022-10-21T16:34:19.881Z,84.80
2022-10-21T16:36:46.846Z,84.93
2022-10-21T16:39:21.970Z,85.46
2022-10-21T16:41:49.333Z,84.70
2022-10-21T16:44:16.605Z,86.45
2022-10-21T16:46:55.093Z,86.53
2022-10-21T16:49:26.906Z,86.28
2022-10-21T16:51:54.616Z,85.51
2022-10-21T16:54:23.194Z,84.07
2022-10-21T16:56:52.246Z,85.13
2022-10-21T16:59:21.922Z,85.57
2022-10-21T17:01:48.948Z,85.68
2022-10-21T17:04:16.079Z,84.35
2022-10-21T17:06:43.076Z,84.07
2022-10-21T17:09:10.366Z,83.03
2022-10-21T17:11:40.960Z,82.68
2022-10-21T17:14:19.311Z,85.30
2022-10-21T17:16:46.645Z,85.88
2022-10-21T17:19:14.645Z,85.27
2022-10-21T17:21:42.168Z,85.26
2022-10-21T17:24:15.039Z,85.73
2022-10-21T17:26:42.579Z,84.48
2022-10-21T17:29:12.674Z,84.33
2022-10-21T17:31:42.100Z,85.30
2022-10-21T17:34:26.603Z,85.86
2022-10-21T17:36:53.921Z,83.75
2022-10-21T17:39:21.611Z,82.96
2022-10-21T17:41:48.687Z,82.94
2022-10-21T17:44:16.514Z,83.32
2022-10-21T17:46:43.638Z,82.13
2022-10-21T17:49:10.706Z,82.61
2022-10-21T17:51:37.773Z,83.19
2022-10-21T17:54:04.829Z,85.14
2022-10-21T17:56:31.943Z,85.72
2022-10-21T17:59:00.386Z,83.89
2022-10-21T18:01:28.158Z,81.64
2022-10-21T18:03:58.860Z,83.63
2022-10-21T18:06:26.728Z,82.86
2022-10-21T18:08:53.835Z,82.79
2022-10-21T18:11:21.445Z,83.97
2022-10-21T18:13:53.455Z,85.43
2022-10-21T18:16:23.934Z,83.81
2022-10-21T18:18:50.990Z,85.31
2022-10-21T18:21:23.547Z,85.54
2022-10-21T18:23:53.300Z,85.33
2022-10-21T18:26:28.706Z,84.71
2022-10-21T18:29:00.505Z,83.13
2022-10-21T18:31:32.218Z,86.86
2022-10-21T18:34:01.202Z,84.36
2022-10-21T18:36:28.503Z,83.13
2022-10-21T18:38:57.336Z,84.97
2022-10-21T18:41:24.385Z,86.49
2022-10-21T18:43:55.765Z,84.82
2022-10-21T18:46:23.422Z,84.98
2022-10-21T18:48:50.892Z,86.54
2022-10-21T18:51:19.449Z,84.34
2022-10-21T18:53:50.083Z,82.79
2022-10-21T18:56:21.493Z,84.83
2022-10-21T18:58:48.819Z,82.75
2022-10-21T19:01:17.336Z,83.69
2022-10-21T19:03:44.876Z,84.51
2022-10-21T19:06:38.813Z,85.74
2022-10-21T19:09:09.189Z,86.49
2022-10-21T19:11:36.355Z,84.88
2022-10-21T19:14:03.535Z,82.95
2022-10-21T19:16:30.586Z,84.62
2022-10-21T19:18:57.717Z,87.03
2022-10-21T19:21:25.336Z,87.86
2022-10-21T19:23:53.460Z,86.84
2022-10-21T19:26:23.189Z,90.56
2022-10-21T19:28:50.835Z,92.95
2022-10-21T19:31:21.352Z,90.18
2022-10-21T19:33:48.864Z,91.37
2022-10-21T19:36:15.765Z,89.78
2022-10-21T19:38:44.790Z,86.81
2022-10-21T19:41:16.588Z,85.13
2022-10-21T19:43:44.872Z,85.01
2022-10-21T19:46:19.922Z,82.18
2022-10-21T19:48:49.836Z,81.21
2022-10-21T19:51:20.527Z,80.06
2022-10-21T19:53:49.048Z,81.30
2022-10-21T19:56:18.822Z,82.17
2022-10-21T19:58:49.300Z,84.14
2022-10-21T20:01:24.010Z,82.90
2022-10-21T20:03:52.933Z,83.07
2022-10-21T20:06:27.893Z,82.49
2022-10-21T20:09:01.620Z,84.24
2022-10-21T20:11:29.757Z,83.56
2022-10-21T20:13:57.999Z,85.72
2022-10-21T20:16:31.652Z,85.64
2022-10-21T20:19:01.921Z,84.07
2022-10-21T20:21:30.751Z,83.68
2022-10-21T20:23:59.061Z,84.98
2022-10-21T20:26:26.572Z,86.33
2022-10-21T20:28:53.708Z,85.60
2022-10-21T20:31:21.155Z,86.02
2022-10-21T20:33:50.980Z,84.43
2022-10-21T20:36:22.840Z,82.64
2022-10-21T20:38:51.404Z,83.50
2022-10-21T20:41:23.548Z,83.25
2022-10-21T20:43:51.825Z,82.82
2022-10-21T20:46:22.241Z,80.83
2022-10-21T20:48:51.370Z,83.16
2022-10-21T20:51:29.402Z,83.63
2022-10-21T20:54:03.678Z,83.74
2022-10-21T20:56:38.110Z,84.96
2022-10-21T20:59:07.849Z,86.61
2022-10-21T21:01:42.046Z,87.13
2022-10-21T21:04:12.941Z,85.91
2022-10-21T21:06:43.835Z,87.93
2022-10-21T21:14:31.576Z,88.77
2022-10-21T21:16:58.503Z,89.17
2022-10-21T21:19:25.854Z,89.37
2022-10-21T21:21:53.382Z,88.63
2022-10-21T21:24:20.500Z,87.98
2022-10-21T21:26:47.697Z,88.54
2022-10-21T21:29:14.927Z,87.97
2022-10-21T21:31:42.944Z,87.62
2022-10-21T21:34:10.500Z,84.67
2022-10-21T21:36:37.659Z,85.50
2022-10-21T21:39:06.606Z,85.66
2022-10-21T21:41:34.820Z,84.44
2022-10-21T21:44:01.945Z,84.22
2022-10-21T21:46:28.814Z,83.92
2022-10-21T21:49:04.789Z,81.69
2022-10-21T21:51:35.798Z,82.38
2022-10-21T21:54:04.810Z,86.59
2022-10-21T21:56:31.811Z,84.91
2022-10-21T21:58:59.009Z,82.99
2022-10-21T22:01:28.878Z,83.14
2022-10-21T22:03:57.097Z,82.35
2022-10-21T22:06:30.203Z,81.40
2022-10-21T22:08:57.653Z,82.44
2022-10-21T22:11:29.525Z,81.10
2022-10-21T22:13:56.524Z,83.96
2022-10-21T22:16:27.449Z,83.16
2022-10-21T22:18:54.797Z,82.90
2022-10-21T22:21:21.864Z,81.72
2022-10-21T22:23:50.327Z,85.65
2022-10-21T22:26:20.096Z,86.95
2022-10-21T22:28:47.590Z,87.07
2022-10-21T22:31:17.322Z,86.09
2022-10-21T22:33:45.210Z,85.38
2022-10-21T22:36:12.185Z,85.22
2022-10-21T22:38:39.362Z,86.05
2022-10-21T22:41:09.980Z,85.54
2022-10-21T22:43:39.557Z,84.63
2022-10-21T22:46:21.502Z,85.36
2022-10-21T22:48:53.622Z,87.23
2022-10-21T22:51:20.885Z,88.55
2022-10-21T22:53:53.389Z,87.72
2022-10-21T22:56:24.597Z,86.16
2022-10-21T22:58:51.660Z,86.19
2022-10-21T23:01:18.816Z,84.33
2022-10-21T23:03:45.933Z,83.09
2022-10-21T23:06:12.880Z,83.56
2022-10-21T23:08:39.957Z,85.60
2022-10-21T23:11:06.948Z,83.08
2022-10-21T23:13:34.045Z,82.80
2022-10-21T23:16:00.918Z,82.87
2022-10-21T23:18:27.950Z,82.17
2022-10-21T23:20:55.068Z,83.09
2022-10-21T23:23:22.981Z,81.97
2022-10-21T23:25:50.312Z,84.35
2022-10-21T23:30:45.336Z,83.76
2022-10-21T23:33:12.395Z,85.29
2022-10-21T23:35:39.498Z,84.17
2022-10-21T23:38:06.990Z,84.09
2022-10-21T23:40:33.988Z,83.04
2022-10-21T23:43:00.927Z,82.17
2022-10-21T23:45:29.131Z,84.19
2022-10-21T23:47:56.157Z,84.57
2022-10-21T23:50:23.470Z,82.76
2022-10-21T23:52:50.572Z,83.06
2022-10-21T23:55:17.929Z,84.30
2022-10-21T23:57:45.163Z,88.29
